createdAt,value
2018-11-25T00:00:02.254Z,0
2018-11-25T00:00:42.828Z,0
2018-11-25T00:01:23.315Z,0
2018-11-25T00:02:03.766Z,0
2018-11-25T00:02:44.322Z,0
2018-11-25T00:03:24.898Z,0
2018-11-25T00:04:05.235Z,0
2018-11-25T00:04:45.735Z,0
2018-11-25T00:05:26.314Z,0
2018-11-25T00:06:06.948Z,0
2018-11-25T00:06:47.466Z,0
2018-11-25T00:07:34.589Z,0
2018-11-25T00:08:08.288Z,0
2018-11-25T00:08:48.747Z,0
2018-11-25T00:09:29.197Z,0
2018-11-25T00:10:09.656Z,0
2018-11-25T00:10:50.068Z,0
2018-11-25T00:11:30.372Z,0
2018-11-25T00:12:10.867Z,0
2018-11-25T00:12:51.318Z,0
2018-11-25T00:13:31.736Z,0
2018-11-25T00:14:12.042Z,0
2018-11-25T00:14:52.469Z,0
2018-11-25T00:15:32.859Z,0
2018-11-25T00:16:13.285Z,0
2018-11-25T00:16:53.624Z,0
2018-11-25T00:17:34.011Z,0
2018-11-25T00:18:14.349Z,0
2018-11-25T00:18:54.805Z,0
2018-11-25T00:19:35.137Z,0
2018-11-25T00:20:15.559Z,0
2018-11-25T00:20:55.927Z,0
2018-11-25T00:21:36.354Z,0
2018-11-25T00:22:16.730Z,0
2018-11-25T00:22:57.069Z,0
2018-11-25T00:23:37.483Z,0
2018-11-25T00:24:17.931Z,0
2018-11-25T00:24:58.339Z,0
2018-11-25T00:25:38.730Z,0
2018-11-25T00:26:19.178Z,0
2018-11-25T00:26:59.613Z,0
2018-11-25T00:27:40.009Z,0
2018-11-25T00:28:20.499Z,0
2018-11-25T00:29:00.842Z,0
2018-11-25T00:29:41.288Z,0
2018-11-25T00:30:21.608Z,0
2018-11-25T00:31:09.384Z,0
2018-11-25T00:31:42.567Z,0
2018-11-25T00:32:22.945Z,0
2018-11-25T00:33:03.350Z,0
2018-11-25T00:33:43.792Z,0
2018-11-25T00:34:24.205Z,0
2018-11-25T00:35:04.578Z,0
2018-11-25T00:35:45.026Z,0
2018-11-25T00:36:25.375Z,0
2018-11-25T00:37:05.801Z,0
2018-11-25T00:37:48.205Z,0
2018-11-25T00:38:26.542Z,0
2018-11-25T00:39:06.917Z,0
2018-11-25T00:39:47.273Z,0
2018-11-25T00:40:27.760Z,0
2018-11-25T00:41:08.155Z,0
2018-11-25T00:41:48.508Z,0
2018-11-25T00:42:28.919Z,0
2018-11-25T00:43:09.332Z,0
2018-11-25T00:43:49.731Z,0
2018-11-25T00:44:30.142Z,0
2018-11-25T00:45:10.608Z,0
2018-11-25T00:45:50.960Z,0
2018-11-25T00:46:31.433Z,0
2018-11-25T00:47:11.795Z,0
2018-11-25T00:47:52.176Z,0
2018-11-25T00:48:32.586Z,0
2018-11-25T00:49:13.035Z,0
2018-11-25T00:49:53.464Z,0
2018-11-25T00:50:33.830Z,0
2018-11-25T00:51:14.219Z,0
2018-11-25T00:51:54.664Z,0
2018-11-25T00:52:35.087Z,0
2018-11-25T00:53:15.519Z,0
2018-11-25T00:53:55.908Z,0
2018-11-25T00:54:36.291Z,0
2018-11-25T00:55:16.608Z,0
2018-11-25T00:55:57.047Z,0
2018-11-25T00:56:37.490Z,0
2018-11-25T00:57:17.856Z,0
2018-11-25T00:57:58.289Z,0
2018-11-25T00:58:38.744Z,0
2018-11-25T00:59:19.089Z,0
2018-11-25T00:59:59.492Z,0
2018-11-25T01:00:39.845Z,0
2018-11-25T01:01:20.250Z,0
2018-11-25T01:02:00.576Z,0
2018-11-25T01:02:40.989Z,0
2018-11-25T01:03:21.387Z,0
2018-11-25T01:04:01.797Z,0
2018-11-25T01:04:42.084Z,0
2018-11-25T01:05:22.524Z,0
2018-11-25T01:06:02.925Z,0
2018-11-25T01:06:43.350Z,0
2018-11-25T01:07:23.746Z,0
2018-11-25T01:08:04.106Z,0
2018-11-25T01:08:44.490Z,0
2018-11-25T01:09:24.880Z,0
2018-11-25T01:10:05.233Z,0
2018-11-25T01:10:45.673Z,0
2018-11-25T01:11:26.077Z,0
2018-11-25T01:12:06.465Z,0
2018-11-25T01:12:46.910Z,0
2018-11-25T01:13:27.356Z,0
2018-11-25T01:14:07.693Z,0
2018-11-25T01:14:48.161Z,0
2018-11-25T01:15:28.508Z,0
2018-11-25T01:16:08.934Z,0
2018-11-25T01:16:49.328Z,0
2018-11-25T01:17:29.707Z,0
2018-11-25T01:18:10.212Z,0
2018-11-25T01:18:50.515Z,0
2018-11-25T01:19:30.904Z,0
2018-11-25T01:20:11.319Z,0
2018-11-25T01:20:51.706Z,0
2018-11-25T01:21:32.114Z,0
2018-11-25T01:22:12.584Z,0
2018-11-25T01:22:52.941Z,0
2018-11-25T01:23:33.318Z,0
2018-11-25T01:24:13.714Z,0
2018-11-25T01:24:54.107Z,0
2018-11-25T01:25:34.506Z,0
2018-11-25T01:26:14.968Z,0
2018-11-25T01:26:55.251Z,0
2018-11-25T01:27:35.702Z,0
2018-11-25T01:28:16.111Z,0
2018-11-25T01:28:56.489Z,0
2018-11-25T01:29:36.870Z,0
2018-11-25T01:30:17.278Z,0
2018-11-25T01:30:57.621Z,0
2018-11-25T01:31:38.002Z,0
2018-11-25T01:32:18.431Z,0
2018-11-25T01:32:58.840Z,0
2018-11-25T01:33:39.281Z,0
2018-11-25T01:34:19.675Z,0
2018-11-25T01:35:00.964Z,0
2018-11-25T01:35:40.544Z,0
2018-11-25T01:36:20.990Z,0
2018-11-25T01:37:01.370Z,0
2018-11-25T01:37:41.681Z,0
2018-11-25T01:38:22.114Z,0
2018-11-25T01:39:02.401Z,0
2018-11-25T01:39:42.826Z,0
2018-11-25T01:40:23.288Z,0
2018-11-25T01:41:03.637Z,0
2018-11-25T01:41:44.058Z,0
2018-11-25T01:42:24.474Z,0
2018-11-25T01:43:04.872Z,0
2018-11-25T01:43:45.334Z,0
2018-11-25T01:44:25.717Z,0
2018-11-25T01:45:06.051Z,0
2018-11-25T01:45:46.432Z,0
2018-11-25T01:46:26.896Z,0
2018-11-25T01:47:07.278Z,0
2018-11-25T01:47:47.647Z,0
2018-11-25T01:48:28.064Z,0
2018-11-25T01:49:08.520Z,0
2018-11-25T01:49:48.973Z,0
2018-11-25T01:50:29.430Z,0
2018-11-25T01:51:09.769Z,0
2018-11-25T01:51:50.190Z,0
2018-11-25T01:52:30.656Z,0
2018-11-25T01:53:11.079Z,0
2018-11-25T01:53:51.365Z,0
2018-11-25T01:54:31.873Z,0
2018-11-25T01:55:12.245Z,0
2018-11-25T01:55:52.610Z,0
2018-11-25T01:56:33.137Z,0
2018-11-25T01:57:13.396Z,0
2018-11-25T01:57:53.885Z,0
2018-11-25T01:58:34.328Z,0
2018-11-25T01:59:14.730Z,0
2018-11-25T01:59:55.104Z,0
2018-11-25T02:00:35.597Z,0
2018-11-25T02:01:15.859Z,0
2018-11-25T02:01:56.346Z,0
2018-11-25T02:02:36.771Z,0
2018-11-25T02:03:17.230Z,0
2018-11-25T02:03:57.577Z,0
2018-11-25T02:04:37.964Z,0
2018-11-25T02:05:18.379Z,0
2018-11-25T02:05:58.762Z,0
2018-11-25T02:06:39.148Z,0
2018-11-25T02:07:19.618Z,0
2018-11-25T02:07:59.989Z,0
2018-11-25T02:08:40.383Z,0
2018-11-25T02:09:20.816Z,0
2018-11-25T02:10:01.202Z,0
2018-11-25T02:10:41.647Z,0
2018-11-25T02:11:22.132Z,0
2018-11-25T02:12:02.462Z,0
2018-11-25T02:12:42.984Z,0
2018-11-25T02:13:23.281Z,0
2018-11-25T02:14:03.656Z,0
2018-11-25T02:14:44.047Z,0
2018-11-25T02:15:24.461Z,0
2018-11-25T02:16:04.841Z,0
2018-11-25T02:16:45.298Z,0
2018-11-25T02:17:25.848Z,0
2018-11-25T02:18:06.268Z,0
2018-11-25T02:18:46.731Z,0
2018-11-25T02:19:27.230Z,0
2018-11-25T02:20:07.650Z,0
2018-11-25T02:20:48.034Z,0
2018-11-25T02:21:28.406Z,0
2018-11-25T02:22:08.845Z,0
2018-11-25T02:22:49.196Z,0
2018-11-25T02:23:29.628Z,0
2018-11-25T02:24:10.062Z,0
2018-11-25T02:24:50.485Z,0
2018-11-25T02:25:30.909Z,0
2018-11-25T02:26:11.543Z,0
2018-11-25T02:26:51.967Z,0
2018-11-25T02:27:32.374Z,0
2018-11-25T02:28:12.857Z,0
2018-11-25T02:28:53.197Z,0
2018-11-25T02:29:33.644Z,0
2018-11-25T02:30:14.027Z,0
2018-11-25T02:30:54.504Z,0
2018-11-25T02:31:34.881Z,0
2018-11-25T02:32:15.314Z,0
2018-11-25T02:32:55.707Z,0
2018-11-25T02:33:36.214Z,0
2018-11-25T02:34:16.588Z,0
2018-11-25T02:34:57.084Z,0
2018-11-25T02:35:37.446Z,0
2018-11-25T02:36:17.829Z,0
2018-11-25T02:36:58.266Z,0
2018-11-25T02:37:38.628Z,0
2018-11-25T02:38:19.101Z,0
2018-11-25T02:38:59.437Z,0
2018-11-25T02:39:39.849Z,0
2018-11-25T02:40:20.247Z,0
2018-11-25T02:41:00.741Z,0
2018-11-25T02:41:41.115Z,0
2018-11-25T02:42:21.469Z,0
2018-11-25T02:43:02.048Z,0
2018-11-25T02:43:42.252Z,0
2018-11-25T02:44:22.676Z,0
2018-11-25T02:45:03.101Z,0
2018-11-25T02:45:43.526Z,0
2018-11-25T02:46:24.032Z,0
2018-11-25T02:47:04.360Z,0
2018-11-25T02:47:44.758Z,0
2018-11-25T02:48:25.208Z,0
2018-11-25T02:49:05.657Z,0
2018-11-25T02:49:45.910Z,0
2018-11-25T02:50:26.358Z,0
2018-11-25T02:51:06.804Z,0
2018-11-25T02:51:47.132Z,0
2018-11-25T02:52:27.609Z,0
2018-11-25T02:53:08.022Z,0
2018-11-25T02:53:48.352Z,0
2018-11-25T02:54:28.727Z,0
2018-11-25T02:55:09.111Z,0
2018-11-25T02:55:49.594Z,0
2018-11-25T02:56:30.005Z,0
2018-11-25T02:57:10.529Z,0
2018-11-25T02:57:50.969Z,0
2018-11-25T02:58:31.303Z,0
2018-11-25T02:59:11.698Z,0
2018-11-25T02:59:52.117Z,0
2018-11-25T03:00:32.514Z,0
2018-11-25T03:01:12.905Z,0
2018-11-25T03:01:53.339Z,0
2018-11-25T03:02:33.752Z,0
2018-11-25T03:03:14.172Z,0
2018-11-25T03:03:54.535Z,0
2018-11-25T03:04:34.972Z,0
2018-11-25T03:05:15.376Z,0
2018-11-25T03:05:55.828Z,0
2018-11-25T03:06:36.271Z,0
2018-11-25T03:07:16.700Z,0
2018-11-25T03:07:57.079Z,0
2018-11-25T03:08:37.533Z,0
2018-11-25T03:09:17.914Z,0
2018-11-25T03:09:58.200Z,0
2018-11-25T03:10:38.677Z,0
2018-11-25T03:11:19.094Z,0
2018-11-25T03:11:59.491Z,0
2018-11-25T03:12:39.858Z,0
2018-11-25T03:13:20.448Z,0
2018-11-25T03:14:00.806Z,0
2018-11-25T03:14:41.264Z,0
2018-11-25T03:15:21.576Z,0
2018-11-25T03:16:01.993Z,0
2018-11-25T03:16:42.408Z,0
2018-11-25T03:17:22.790Z,0
2018-11-25T03:18:03.240Z,0
2018-11-25T03:18:44.440Z,0
2018-11-25T03:19:24.879Z,0
2018-11-25T03:20:05.183Z,0
2018-11-25T03:20:45.697Z,0
2018-11-25T03:21:26.435Z,0
2018-11-25T03:22:06.790Z,0
2018-11-25T03:22:47.259Z,0
2018-11-25T03:23:27.664Z,0
2018-11-25T03:24:07.982Z,0
2018-11-25T03:24:48.516Z,0
2018-11-25T03:25:28.913Z,0
2018-11-25T03:26:09.278Z,0
2018-11-25T03:26:49.696Z,0
2018-11-25T03:27:30.169Z,0
2018-11-25T03:28:10.658Z,0
2018-11-25T03:28:51.129Z,0
2018-11-25T03:29:31.495Z,0
2018-11-25T03:30:12.018Z,0
2018-11-25T03:30:52.639Z,0
2018-11-25T03:31:33.035Z,0
2018-11-25T03:32:13.456Z,0
2018-11-25T03:32:53.872Z,0
2018-11-25T03:33:34.372Z,0
2018-11-25T03:34:14.777Z,0
2018-11-25T03:34:55.113Z,0
2018-11-25T03:35:35.647Z,0
2018-11-25T03:36:16.273Z,0
2018-11-25T03:36:56.629Z,0
2018-11-25T03:37:37.176Z,0
2018-11-25T03:38:17.486Z,0
2018-11-25T03:38:57.880Z,0
2018-11-25T03:39:38.321Z,0
2018-11-25T03:40:18.869Z,0
2018-11-25T03:40:59.242Z,0
2018-11-25T03:41:39.669Z,0
2018-11-25T03:42:20.057Z,0
2018-11-25T03:43:00.520Z,0
2018-11-25T03:43:40.949Z,0
2018-11-25T03:44:21.271Z,0
2018-11-25T03:45:01.790Z,0
2018-11-25T03:45:42.165Z,0
2018-11-25T03:46:22.513Z,0
2018-11-25T03:47:03.066Z,0
2018-11-25T03:47:43.502Z,0
2018-11-25T03:48:23.937Z,0
2018-11-25T03:49:04.402Z,0
2018-11-25T03:49:44.773Z,0
2018-11-25T03:50:25.200Z,0
2018-11-25T03:51:05.807Z,0
2018-11-25T03:51:46.313Z,0
2018-11-25T03:52:26.787Z,0
2018-11-25T03:53:07.111Z,0
2018-11-25T03:53:47.605Z,0
2018-11-25T03:54:28.114Z,0
2018-11-25T03:55:08.612Z,0
2018-11-25T03:55:48.950Z,0
2018-11-25T03:56:29.273Z,0
2018-11-25T03:57:09.701Z,0
2018-11-25T03:57:50.249Z,0
2018-11-25T03:58:30.654Z,0
2018-11-25T03:59:11.087Z,0
2018-11-25T03:59:51.576Z,0
2018-11-25T04:00:32.293Z,0
2018-11-25T04:01:13.068Z,0
2018-11-25T04:01:53.281Z,0
2018-11-25T04:02:33.814Z,0
2018-11-25T04:03:14.275Z,0
2018-11-25T04:03:54.731Z,0
2018-11-25T04:04:35.144Z,0
2018-11-25T04:05:15.666Z,0
2018-11-25T04:05:56.201Z,0
2018-11-25T04:06:36.514Z,0
2018-11-25T04:07:16.943Z,0
2018-11-25T04:07:57.436Z,0
2018-11-25T04:08:37.949Z,0
2018-11-25T04:09:18.437Z,0
2018-11-25T04:09:58.846Z,0
2018-11-25T04:10:39.183Z,0
2018-11-25T04:11:19.747Z,0
2018-11-25T04:12:00.132Z,0
2018-11-25T04:12:41.315Z,0
2018-11-25T04:13:21.687Z,0
2018-11-25T04:14:02.075Z,0
2018-11-25T04:14:42.592Z,0
2018-11-25T04:15:23.056Z,0
2018-11-25T04:16:03.535Z,0
2018-11-25T04:16:43.993Z,0
2018-11-25T04:17:24.453Z,0
2018-11-25T04:18:04.927Z,0
2018-11-25T04:18:45.315Z,0
2018-11-25T04:19:25.751Z,0
2018-11-25T04:20:06.213Z,0
2018-11-25T04:20:46.775Z,0
2018-11-25T04:21:27.196Z,0
2018-11-25T04:22:07.619Z,0
2018-11-25T04:22:48.094Z,0
2018-11-25T04:23:28.400Z,0
2018-11-25T04:24:09.130Z,0
2018-11-25T04:24:49.615Z,0
2018-11-25T04:25:30.057Z,0
2018-11-25T04:26:10.487Z,0
2018-11-25T04:26:50.960Z,0
2018-11-25T04:27:31.341Z,0
2018-11-25T05:06:50.566Z,0
2018-11-25T05:07:32.789Z,0
2018-11-25T05:08:13.140Z,0
2018-11-25T05:08:53.533Z,0
2018-11-25T05:09:33.936Z,0
2018-11-25T05:10:14.296Z,0
2018-11-25T05:10:54.641Z,0
2018-11-25T05:11:35.083Z,0
2018-11-25T05:12:15.467Z,0
2018-11-25T05:12:56.716Z,0
2018-11-25T05:13:37.060Z,0
2018-11-25T05:14:17.475Z,0
2018-11-25T05:14:57.886Z,0
2018-11-25T05:15:38.295Z,0
2018-11-25T05:16:18.754Z,0
2018-11-25T05:16:59.083Z,0
2018-11-25T05:17:39.472Z,0
2018-11-25T05:18:19.871Z,0
2018-11-25T05:19:00.235Z,0
2018-11-25T05:19:40.648Z,0
2018-11-25T05:20:20.997Z,0
2018-11-25T05:21:01.351Z,0
2018-11-25T05:21:41.820Z,0
2018-11-25T05:22:22.128Z,0
2018-11-25T05:23:02.597Z,0
2018-11-25T05:23:43.005Z,0
2018-11-25T05:24:23.335Z,0
2018-11-25T05:25:03.784Z,0
2018-11-25T05:25:44.150Z,0
2018-11-25T05:26:24.594Z,0
2018-11-25T05:27:04.995Z,0
2018-11-25T05:27:45.396Z,0
2018-11-25T05:28:25.756Z,0
2018-11-25T05:29:06.290Z,0
2018-11-25T05:29:46.627Z,0
2018-11-25T05:30:26.992Z,0
2018-11-25T05:31:07.394Z,0
2018-11-25T05:33:44.113Z,0
2018-11-25T05:34:24.428Z,0
2018-11-25T05:35:04.834Z,0
2018-11-25T05:35:45.255Z,0
2018-11-25T05:36:25.621Z,0
2018-11-25T05:37:06.030Z,0
2018-11-25T05:37:46.476Z,0
2018-11-25T05:38:26.864Z,0
2018-11-25T05:39:07.269Z,0
2018-11-25T05:39:47.638Z,0
2018-11-25T05:40:28.068Z,0
2018-11-25T05:41:08.489Z,0
2018-11-25T05:41:48.897Z,0
2018-11-25T05:42:29.348Z,0
2018-11-25T05:43:09.738Z,0
2018-11-25T05:43:50.166Z,0
2018-11-25T05:44:30.606Z,0
2018-11-25T05:45:10.910Z,0
2018-11-25T05:47:56.771Z,0
2018-11-25T05:48:52.970Z,0
2018-11-25T05:49:46.955Z,0
2018-11-25T05:50:39.316Z,0
2018-11-25T05:51:31.868Z,0
2018-11-25T05:52:24.691Z,0
2018-11-25T05:53:17.740Z,0
2018-11-25T05:54:10.519Z,0
2018-11-25T05:55:02.990Z,0
2018-11-25T05:55:56.041Z,0
2018-11-25T05:56:48.495Z,0
2018-11-25T05:57:41.964Z,0
2018-11-25T05:58:34.995Z,0
2018-11-25T05:59:28.728Z,0
2018-11-25T06:00:21.866Z,0
2018-11-25T06:01:13.611Z,0
2018-11-25T06:02:06.408Z,0
2018-11-25T06:02:58.571Z,0
2018-11-25T06:03:50.870Z,0
2018-11-25T06:04:44.837Z,0
2018-11-25T06:05:38.809Z,0
2018-11-25T06:06:31.004Z,0
2018-11-25T06:07:25.170Z,0
2018-11-25T06:08:18.765Z,0
2018-11-25T06:09:12.210Z,0
2018-11-25T06:10:05.801Z,0
2018-11-25T06:11:00.212Z,0
2018-11-25T06:11:52.846Z,0
2018-11-25T06:12:46.845Z,0
2018-11-25T06:13:39.949Z,0
2018-11-25T06:14:32.829Z,0
2018-11-25T06:15:26.711Z,0
2018-11-25T06:16:22.308Z,0
2018-11-25T06:17:16.448Z,0
2018-11-25T06:18:09.826Z,0
2018-11-25T06:19:02.837Z,0
2018-11-25T06:19:55.734Z,0
2018-11-25T06:20:49.077Z,0
2018-11-25T06:21:41.899Z,0
2018-11-25T06:22:34.436Z,0
2018-11-25T06:23:28.152Z,0
2018-11-25T06:24:22.288Z,0
2018-11-25T06:25:17.854Z,0
2018-11-25T06:26:12.108Z,0
2018-11-25T06:27:05.228Z,0
2018-11-25T06:27:58.957Z,0
2018-11-25T06:28:51.249Z,0
2018-11-25T06:29:46.204Z,0
2018-11-25T06:30:39.788Z,0
2018-11-25T06:31:31.927Z,0
2018-11-25T06:32:25.411Z,0
2018-11-25T06:33:21.296Z,0
2018-11-25T06:34:15.805Z,0
2018-11-25T06:35:08.308Z,0
2018-11-25T06:36:02.245Z,0
2018-11-25T06:36:57.387Z,0
2018-11-25T06:37:50.369Z,0
2018-11-25T06:38:43.806Z,0
2018-11-25T06:39:37.486Z,0
2018-11-25T06:40:30.133Z,0
2018-11-25T06:41:23.061Z,0
2018-11-25T06:42:16.508Z,0
2018-11-25T06:43:09.597Z,0
2018-11-25T06:44:03.071Z,0
2018-11-25T06:44:56.069Z,0
2018-11-25T06:45:49.472Z,0
2018-11-25T06:46:41.836Z,0
2018-11-25T06:47:34.881Z,0
2018-11-25T06:48:30.607Z,0
2018-11-25T06:49:22.866Z,0
2018-11-25T06:50:16.167Z,0
2018-11-25T06:51:09.354Z,4
2018-11-25T06:52:02.345Z,4
2018-11-25T06:52:54.713Z,4
2018-11-25T06:53:50.132Z,0
2018-11-25T06:54:44.092Z,0
2018-11-25T06:55:36.150Z,0
2018-11-25T06:56:29.915Z,4
2018-11-25T06:57:22.054Z,4
2018-11-25T06:58:14.908Z,4
2018-11-25T06:59:07.946Z,4
2018-11-25T07:00:00.830Z,4
2018-11-25T07:00:54.295Z,8
2018-11-25T07:01:48.952Z,4
2018-11-25T07:02:42.189Z,4
2018-11-25T07:03:35.518Z,8
2018-11-25T07:04:29.574Z,4
2018-11-25T07:05:22.396Z,8
2018-11-25T07:06:14.484Z,8
2018-11-25T07:07:07.930Z,8
2018-11-25T07:08:00.650Z,8
2018-11-25T07:08:53.241Z,12
2018-11-25T07:09:36.249Z,12
2018-11-25T07:10:17.363Z,12
2018-11-25T07:10:57.896Z,12
2018-11-25T07:11:39.000Z,12
2018-11-25T07:12:20.759Z,12
2018-11-25T07:13:02.048Z,12
2018-11-25T07:13:42.924Z,12
2018-11-25T07:14:25.527Z,12
2018-11-25T07:15:06.636Z,12
2018-11-25T07:15:47.698Z,16
2018-11-25T07:16:28.690Z,16
2018-11-25T07:17:11.483Z,16
2018-11-25T07:17:54.384Z,12
2018-11-25T07:18:37.247Z,16
2018-11-25T07:19:20.489Z,16
2018-11-25T07:20:01.894Z,16
2018-11-25T07:20:44.141Z,20
2018-11-25T07:21:24.910Z,20
2018-11-25T07:22:08.728Z,20
2018-11-25T07:22:48.874Z,20
2018-11-25T07:23:29.453Z,20
2018-11-25T07:26:14.683Z,20
2018-11-25T07:27:09.415Z,24
2018-11-25T07:28:17.550Z,24
2018-11-25T07:29:04.936Z,28
2018-11-25T07:29:57.895Z,28
2018-11-25T07:30:51.908Z,28
2018-11-25T07:31:47.787Z,28
2018-11-25T07:32:44.204Z,32
2018-11-25T07:33:39.631Z,32
2018-11-25T07:34:33.797Z,32
2018-11-25T07:35:26.442Z,32
2018-11-25T07:36:18.680Z,36
2018-11-25T07:39:07.962Z,40
2018-11-25T07:39:48.780Z,36
2018-11-25T07:40:29.799Z,40
2018-11-25T07:41:09.825Z,40
2018-11-25T07:41:50.203Z,40
2018-11-25T07:42:30.644Z,44
2018-11-25T07:43:11.075Z,44
2018-11-25T07:43:51.400Z,48
2018-11-25T07:44:31.768Z,48
2018-11-25T07:45:12.146Z,52
2018-11-25T07:45:52.550Z,52
2018-11-25T07:46:32.968Z,52
2018-11-25T07:47:13.421Z,52
2018-11-25T07:47:53.800Z,52
2018-11-25T07:48:34.208Z,52
2018-11-25T07:49:14.752Z,56
2018-11-25T07:49:55.180Z,56
2018-11-25T07:50:35.580Z,60
2018-11-25T07:51:15.965Z,56
2018-11-25T07:51:56.511Z,60
2018-11-25T07:52:36.843Z,64
2018-11-25T07:53:17.244Z,64
2018-11-25T07:53:57.752Z,64
2018-11-25T07:54:38.166Z,64
2018-11-25T07:55:18.616Z,64
2018-11-25T07:56:00.045Z,64
2018-11-25T07:56:40.937Z,68
2018-11-25T07:57:21.713Z,68
2018-11-25T07:58:02.265Z,68
2018-11-25T07:58:42.664Z,72
2018-11-25T07:59:23.057Z,72
2018-11-25T08:00:03.644Z,76
2018-11-25T08:00:43.928Z,80
2018-11-25T08:01:24.455Z,84
2018-11-25T08:02:04.729Z,80
2018-11-25T08:02:45.951Z,80
2018-11-25T08:03:26.384Z,84
2018-11-25T08:04:06.808Z,84
2018-11-25T08:04:47.191Z,84
2018-11-25T08:05:27.797Z,84
2018-11-25T08:06:08.100Z,84
2018-11-25T08:06:48.913Z,80
2018-11-25T08:07:29.330Z,84
2018-11-25T08:08:09.690Z,84
2018-11-25T08:08:50.104Z,80
2018-11-25T08:09:30.496Z,84
2018-11-25T08:10:10.944Z,84
2018-11-25T08:10:51.399Z,88
2018-11-25T08:11:31.720Z,92
2018-11-25T08:12:12.125Z,92
2018-11-25T08:12:52.551Z,96
2018-11-25T08:13:32.936Z,96
2018-11-25T08:14:13.332Z,100
2018-11-25T08:14:55.999Z,100
2018-11-25T08:15:35.014Z,104
2018-11-25T08:16:15.399Z,104
2018-11-25T08:16:55.818Z,108
2018-11-25T08:17:36.953Z,104
2018-11-25T08:18:17.346Z,104
2018-11-25T08:18:57.751Z,104
2018-11-25T08:19:38.206Z,104
2018-11-25T08:20:18.626Z,104
2018-11-25T08:20:59.011Z,100
2018-11-25T08:21:39.394Z,104
2018-11-25T08:24:18.117Z,100
2018-11-25T08:25:10.734Z,96
2018-11-25T08:26:04.525Z,96
2018-11-25T08:26:57.658Z,96
2018-11-25T08:27:52.205Z,96
2018-11-25T08:28:46.715Z,96
2018-11-25T08:29:44.137Z,96
2018-11-25T08:30:36.438Z,96
2018-11-25T08:31:29.782Z,96
2018-11-25T08:32:22.823Z,96
2018-11-25T08:33:15.952Z,104
2018-11-25T08:34:10.907Z,104
2018-11-25T08:35:06.065Z,104
2018-11-25T08:36:02.820Z,100
2018-11-25T08:36:55.352Z,100
2018-11-25T08:37:50.236Z,100
2018-11-25T08:38:43.649Z,104
2018-11-25T08:39:38.413Z,104
2018-11-25T08:40:35.000Z,104
2018-11-25T08:41:28.853Z,104
2018-11-25T08:42:25.610Z,104
2018-11-25T08:43:29.254Z,112
2018-11-25T08:44:23.185Z,112
2018-11-25T08:45:17.595Z,116
2018-11-25T08:46:12.533Z,124
2018-11-25T08:47:07.449Z,128
2018-11-25T08:48:00.597Z,132
2018-11-25T08:48:59.197Z,140
2018-11-25T08:49:54.158Z,148
2018-11-25T08:50:47.050Z,152
2018-11-25T08:51:41.292Z,164
2018-11-25T08:52:35.766Z,168
2018-11-25T08:53:32.210Z,172
2018-11-25T08:54:36.924Z,180
2018-11-25T08:55:30.969Z,180
2018-11-25T08:56:25.749Z,184
2018-11-25T08:57:18.710Z,180
2018-11-25T08:58:13.828Z,184
2018-11-25T08:59:14.870Z,188
2018-11-25T09:00:12.678Z,184
2018-11-25T09:03:11.198Z,192
2018-11-25T09:04:17.828Z,196
2018-11-25T09:05:16.106Z,200
2018-11-25T09:06:12.901Z,204
2018-11-25T09:12:30.237Z,204
2018-11-25T09:13:26.226Z,204
2018-11-25T09:14:21.158Z,204
2018-11-25T09:15:15.020Z,212
2018-11-25T09:16:07.355Z,216
2018-11-25T09:17:01.980Z,216
2018-11-25T09:17:56.250Z,212
2018-11-25T09:18:52.855Z,216
2018-11-25T09:19:48.389Z,220
2018-11-25T09:20:40.787Z,220
2018-11-25T09:21:35.290Z,224
2018-11-25T09:22:32.255Z,224
2018-11-25T09:23:26.784Z,220
2018-11-25T09:24:19.423Z,224
2018-11-25T09:25:12.754Z,224
2018-11-25T09:26:07.919Z,224
2018-11-25T09:27:01.563Z,224
2018-11-25T09:27:55.379Z,228
2018-11-25T09:28:48.305Z,240
2018-11-25T09:29:41.102Z,252
2018-11-25T09:30:35.910Z,256
2018-11-25T09:31:28.720Z,260
2018-11-25T09:32:23.865Z,256
2018-11-25T09:33:17.105Z,260
2018-11-25T09:34:10.720Z,272
2018-11-25T09:35:12.471Z,276
2018-11-25T09:36:06.011Z,268
2018-11-25T09:37:05.507Z,272
2018-11-25T09:37:58.554Z,280
2018-11-25T09:38:51.860Z,276
2018-11-25T09:39:46.657Z,288
2018-11-25T09:40:59.055Z,288
2018-11-25T09:41:52.938Z,292
2018-11-25T09:42:51.293Z,292
2018-11-25T09:43:48.613Z,296
2018-11-25T09:44:44.833Z,288
2018-11-25T09:47:13.478Z,288
2018-11-25T09:47:53.854Z,308
2018-11-25T09:48:34.237Z,324
2018-11-25T09:49:14.666Z,332
2018-11-25T09:49:55.105Z,336
2018-11-25T09:50:35.449Z,340
2018-11-25T09:51:15.861Z,344
2018-11-25T09:51:56.339Z,340
2018-11-25T09:52:36.653Z,364
2018-11-25T09:53:17.052Z,368
2018-11-25T09:53:57.483Z,364
2018-11-25T10:00:02.080Z,372
2018-11-25T10:00:42.099Z,384
2018-11-25T10:01:22.534Z,392
2018-11-25T10:02:02.868Z,396
2018-11-25T10:02:43.257Z,404
2018-11-25T10:03:23.692Z,420
2018-11-25T10:04:04.077Z,428
2018-11-25T10:04:44.499Z,448
2018-11-25T10:05:24.931Z,448
2018-11-25T10:06:05.262Z,436
2018-11-25T10:06:45.708Z,424
2018-11-25T10:07:26.097Z,404
2018-11-25T10:08:06.525Z,392
2018-11-25T10:08:46.963Z,392
2018-11-25T10:09:27.377Z,384
2018-11-25T10:12:00.490Z,380
2018-11-25T10:12:40.580Z,384
2018-11-25T10:13:20.996Z,380
2018-11-25T10:14:01.405Z,376
2018-11-25T10:14:41.809Z,376
2018-11-25T10:15:22.301Z,372
2018-11-25T10:16:02.634Z,356
2018-11-25T10:16:43.011Z,340
2018-11-25T10:17:23.390Z,332
2018-11-25T10:18:03.806Z,320
2018-11-25T10:20:32.774Z,276
2018-11-25T10:21:13.151Z,276
2018-11-25T10:21:53.598Z,268
2018-11-25T10:22:33.979Z,272
2018-11-25T10:24:51.747Z,284
2018-11-25T10:25:32.058Z,292
2018-11-25T10:26:12.461Z,288
2018-11-25T10:26:52.852Z,292
2018-11-25T10:27:33.227Z,284
2018-11-25T10:28:13.660Z,284
2018-11-25T10:28:54.093Z,292
2018-11-25T11:09:52.623Z,272
2018-11-25T11:10:34.117Z,272
2018-11-25T11:11:14.372Z,268
2018-11-25T11:11:54.791Z,268
2018-11-25T11:12:35.186Z,268
2018-11-25T11:13:15.664Z,268
2018-11-25T11:13:56.039Z,268
2018-11-25T11:14:36.455Z,268
2018-11-25T11:15:16.820Z,268
2018-11-25T11:15:57.244Z,264
2018-11-25T11:16:37.658Z,264
2018-11-25T11:17:18.041Z,264
2018-11-25T11:17:58.448Z,260
2018-11-25T11:18:38.868Z,260
2018-11-25T11:19:19.286Z,256
2018-11-25T11:19:59.687Z,256
2018-11-25T11:20:40.054Z,256
2018-11-25T11:22:58.895Z,252
2018-11-25T11:23:37.091Z,252
2018-11-25T11:24:17.494Z,260
2018-11-25T11:24:57.917Z,264
2018-11-25T11:25:38.331Z,268
2018-11-25T11:26:18.758Z,268
2018-11-25T11:28:38.135Z,292
2018-11-25T11:29:17.419Z,300
2018-11-25T11:29:57.837Z,304
2018-11-25T11:30:38.209Z,304
2018-11-25T11:31:18.580Z,316
2018-11-25T11:31:58.971Z,316
2018-11-25T11:32:39.399Z,324
2018-11-25T11:33:19.810Z,320
2018-11-25T11:34:00.249Z,324
2018-11-25T11:34:40.658Z,320
2018-11-25T11:35:21.079Z,316
2018-11-25T11:36:01.531Z,308
2018-11-25T11:36:41.900Z,304
2018-11-25T11:37:22.282Z,304
2018-11-25T11:38:02.704Z,312
2018-11-25T11:38:43.131Z,308
2018-11-25T11:39:23.539Z,320
2018-11-25T11:40:03.902Z,328
2018-11-25T11:40:44.310Z,328
2018-11-25T11:41:24.703Z,320
2018-11-25T11:42:05.137Z,316
2018-11-25T11:42:45.497Z,312
2018-11-25T11:44:43.475Z,292
2018-11-25T11:45:23.436Z,292
2018-11-25T11:46:03.788Z,296
2018-11-25T11:46:44.210Z,296
2018-11-25T11:47:24.647Z,300
2018-11-25T11:48:05.085Z,300
2018-11-25T11:48:45.466Z,296
2018-11-25T11:49:25.847Z,296
2018-11-25T11:50:06.237Z,288
2018-11-25T11:50:46.640Z,288
2018-11-25T11:51:27.406Z,308
2018-11-25T11:52:07.485Z,312
2018-11-25T11:52:47.913Z,312
2018-11-25T11:53:28.402Z,308
2018-11-25T11:54:08.818Z,304
2018-11-25T11:54:49.196Z,304
2018-11-25T11:55:29.594Z,304
2018-11-25T11:56:09.985Z,304
2018-11-25T11:56:50.388Z,300
2018-11-25T11:57:30.814Z,304
2018-11-25T11:58:11.228Z,308
2018-11-25T11:58:51.635Z,304
2018-11-25T11:59:32.020Z,300
2018-11-25T12:00:12.424Z,296
2018-11-25T12:00:52.828Z,292
2018-11-25T12:01:33.250Z,292
2018-11-25T12:02:13.697Z,288
2018-11-25T12:02:54.048Z,288
2018-11-25T12:03:34.491Z,284
2018-11-25T12:04:14.867Z,284
2018-11-25T12:04:55.269Z,280
2018-11-25T12:05:35.659Z,272
2018-11-25T12:06:16.066Z,272
2018-11-25T12:06:56.470Z,260
2018-11-25T12:07:36.973Z,252
2018-11-25T12:08:17.312Z,240
2018-11-25T12:08:57.675Z,236
2018-11-25T12:09:38.080Z,244
2018-11-25T12:10:18.544Z,248
2018-11-25T12:10:58.923Z,252
2018-11-25T12:11:39.383Z,264
2018-11-25T12:12:19.755Z,272
2018-11-25T12:13:00.139Z,272
2018-11-25T12:15:18.061Z,276
2018-11-25T12:15:58.188Z,284
2018-11-25T12:16:38.518Z,280
2018-11-25T12:17:18.935Z,276
2018-11-25T12:17:59.383Z,276
2018-11-25T12:18:39.855Z,280
2018-11-25T12:19:20.192Z,288
2018-11-25T12:20:00.620Z,284
2018-11-25T12:20:41.039Z,284
2018-11-25T12:21:21.482Z,288